Time;durP1;ratioP1;P1;durP2;ratioP2;P2;SDS_P1;SDS_P2;PMS_P1;PMS_P2;Temp;Humidity;BMP_temperature;BMP_pressure;BME280_temperature;BME280_humidity;BME280_pressure;Samples;Min_cycle;Max_cycle;Signal;HPM_P1;HPM_P2
2022/08/21 00:00:38;;;;;;;15.43;4.47;;;;;;;17.49;100.00;100618.00;1693239;83;21172;-91
2022/08/21 00:03:08;;;;;;;26.10;5.03;;;;;;;17.49;100.00;100621.45;1690249;83;21046;-92
2022/08/21 00:05:45;;;;;;;21.85;4.80;;;;;;;17.51;100.00;100613.37;1694515;83;21031;-92
2022/08/21 00:08:15;;;;;;;23.92;5.80;;;;;;;17.50;100.00;100609.94;1690501;83;21031;-91
2022/08/21 00:10:45;;;;;;;23.95;5.53;;;;;;;17.53;100.00;100618.00;1694861;83;21536;-91
2022/08/21 00:13:19;;;;;;;29.02;6.12;;;;;;;17.54;100.00;100610.44;1695167;83;21174;-91
2022/08/21 00:15:47;;;;;;;30.60;6.40;;;;;;;17.50;100.00;100603.36;1699178;83;21125;-92
2022/08/21 00:18:17;;;;;;;25.52;6.05;;;;;;;17.46;100.00;100596.78;1690063;83;21073;-94
2022/08/21 00:20:48;;;;;;;24.47;5.53;;;;;;;17.41;100.00;100590.34;1696814;83;21500;-92
2022/08/21 00:23:18;;;;;;;29.18;5.40;;;;;;;17.40;100.00;100595.27;1685819;83;21046;-92
2022/08/21 00:25:45;;;;;;;31.90;6.80;;;;;;;17.38;100.00;100602.50;1686986;84;21116;-91
2022/08/21 00:28:14;;;;;;;24.75;6.33;;;;;;;17.34;100.00;100604.16;1698036;83;20963;-92
2022/08/21 00:30:43;;;;;;;20.45;5.70;;;;;;;17.32;100.00;100606.59;1691213;83;21023;-90
2022/08/21 00:33:13;;;;;;;31.73;6.62;;;;;;;17.32;100.00;100606.59;1703494;84;21043;-93
2022/08/21 00:35:44;;;;;;;23.73;5.72;;;;;;;17.31;100.00;100612.36;1702086;84;21582;-91
2022/08/21 00:38:12;;;;;;;19.52;6.28;;;;;;;17.33;100.00;100609.08;1701865;83;21797;-92
2022/08/21 00:40:49;;;;;;;26.37;5.53;;;;;;;17.37;100.00;100606.11;1694154;83;21537;-93
2022/08/21 00:43:23;;;;;;;21.17;6.00;;;;;;;17.38;100.00;100602.02;1687150;83;21038;-91
2022/08/21 00:45:53;;;;;;;22.00;6.12;;;;;;;17.38;100.00;100602.02;1688774;83;21091;-91
2022/08/21 00:48:22;;;;;;;20.90;5.40;;;;;;;17.40;100.00;100607.12;1672131;84;21770;-93
2022/08/21 00:50:58;;;;;;;22.30;5.58;;;;;;;17.41;100.00;100606.14;1694421;83;21155;-92
2022/08/21 00:53:30;;;;;;;26.30;5.78;;;;;;;17.43;100.00;100604.98;1696951;83;21007;-91
2022/08/21 00:56:03;;;;;;;15.93;5.60;;;;;;;17.44;100.00;100605.80;1694801;83;21529;-91
2022/08/21 00:58:31;;;;;;;27.93;5.78;;;;;;;17.41;100.00;100596.92;1700188;83;21037;-93
2022/08/21 01:01:06;;;;;;;18.95;5.10;;;;;;;17.39;100.00;100597.06;1695703;83;21027;-92
2022/08/21 01:03:42;;;;;;;21.25;5.10;;;;;;;17.40;100.00;100593.45;1696730;83;21280;-91
2022/08/21 01:06:11;;;;;;;22.85;4.90;;;;;;;17.42;100.00;100586.73;1686085;83;21062;-91
2022/08/21 01:08:39;;;;;;;20.90;5.42;;;;;;;17.41;100.00;100594.30;1684044;84;21563;-95
2022/08/21 01:11:06;;;;;;;24.10;5.10;;;;;;;17.37;100.00;100589.84;1702453;83;21588;-94
2022/08/21 01:13:39;;;;;;;21.80;5.30;;;;;;;17.34;100.00;100585.73;1691191;83;21094;-92
2022/08/21 01:16:17;;;;;;;17.70;5.42;;;;;;;17.33;100.00;100587.19;1699679;83;21159;-91
2022/08/21 01:18:47;;;;;;;22.27;6.12;;;;;;;17.31;100.00;100583.41;1699652;83;21522;-91
2022/08/21 01:21:20;;;;;;;16.37;4.87;;;;;;;17.29;100.00;100585.37;1697527;83;21102;-94
2022/08/21 01:23:53;;;;;;;31.42;6.10;;;;;;;17.27;100.00;100587.33;1692418;83;21065;-91
2022/08/21 01:26:30;;;;;;;22.73;6.33;;;;;;;17.29;100.00;100578.79;1702286;83;21042;-91
2022/08/21 01:29:09;;;;;;;22.80;5.85;;;;;;;17.27;100.00;100585.20;1698985;83;21141;-94
2022/08/21 01:31:39;;;;;;;18.20;4.78;;;;;;;17.19;100.00;100582.87;1689129;83;21525;-91
2022/08/21 01:34:13;;;;;;;22.05;5.30;;;;;;;17.12;100.00;100583.66;1690772;83;21055;-92
2022/08/21 01:36:45;;;;;;;26.77;5.15;;;;;;;17.10;100.00;100586.97;1684809;83;21058;-92
2022/08/21 01:39:13;;;;;;;16.80;5.20;;;;;;;17.10;100.00;100589.59;1701582;83;21073;-91
2022/08/21 01:41:40;;;;;;;22.10;5.33;;;;;;;17.08;100.00;100584.98;1696995;83;21260;-91
2022/08/21 01:44:10;;;;;;;20.62;5.80;;;;;;;17.06;100.00;100575.94;1688755;83;21069;-92
2022/08/21 01:46:40;;;;;;;22.77;5.28;;;;;;;17.03;100.00;100577.05;1692275;84;21126;-92
2022/08/21 01:49:08;;;;;;;32.17;5.90;;;;;;;16.99;100.00;100578.37;1693053;84;21017;-92
2022/08/21 01:51:36;;;;;;;27.90;5.83;;;;;;;16.96;100.00;100580.49;1695049;83;21525;-91
2022/08/21 01:54:07;;;;;;;34.38;5.72;;;;;;;16.88;100.00;100579.92;1686624;84;21808;-92
2022/08/21 01:56:46;;;;;;;29.45;6.22;;;;;;;16.79;100.00;100576.91;1694246;83;21113;-92
2022/08/21 01:59:17;;;;;;;23.32;5.25;;;;;;;16.70;100.00;100572.93;1703011;83;21019;-91
2022/08/21 02:01:44;;;;;;;27.70;5.40;;;;;;;16.61;100.00;100576.52;1695129;83;21097;-92
2022/08/21 02:04:12;;;;;;;32.13;5.95;;;;;;;16.56;100.00;100578.30;1689258;83;21046;-91
2022/08/21 02:06:42;;;;;;;26.87;5.85;;;;;;;16.52;100.00;100580.08;1698634;83;21175;-92
2022/08/21 02:09:12;;;;;;;24.37;6.00;;;;;;;16.50;100.00;100584.19;1692662;83;21035;-91
2022/08/21 02:11:42;;;;;;;23.55;4.72;;;;;;;16.50;100.00;100593.38;1692180;83;21117;-92
2022/08/21 02:14:14;;;;;;;24.47;5.33;;;;;;;16.50;100.00;100593.38;1700572;83;21355;-91
2022/08/21 02:16:45;;;;;;;21.62;5.47;;;;;;;16.52;100.00;100596.66;1694332;83;20947;-91
2022/08/21 02:22:50;;;;;;;34.55;5.85;;;;;;;16.50;100.00;100597.80;1691060;84;21058;-91
2022/08/21 02:25:20;;;;;;;19.92;5.17;;;;;;;16.48;100.00;100605.84;1653363;85;21126;-92
2022/08/21 02:27:49;;;;;;;19.17;5.08;;;;;;;16.50;100.00;100601.27;1634429;87;21111;-91
2022/08/21 02:30:24;;;;;;;19.35;4.83;;;;;;;16.57;100.00;100602.77;1631579;87;20992;-90
2022/08/21 02:32:53;;;;;;;17.73;5.15;;;;;;;16.61;100.00;100601.49;1634879;87;21970;-91
2022/08/21 02:35:23;;;;;;;24.70;6.05;;;;;;;16.68;100.00;100604.30;1628678;87;21093;-91
2022/08/21 02:37:57;;;;;;;17.90;5.03;;;;;;;16.71;100.00;100599.56;1633907;87;22332;-92
2022/08/21 02:40:30;;;;;;;24.40;5.12;;;;;;;16.71;100.00;100596.93;1637540;87;21102;-91
2022/08/21 02:43:02;;;;;;;23.98;4.55;;;;;;;16.75;100.00;100592.69;1638369;84;21054;-91
2022/08/21 02:45:37;;;;;;;17.50;4.87;;;;;;;16.78;100.00;100593.20;1689402;84;21985;-91
2022/08/21 02:48:14;;;;;;;19.73;5.03;;;;;;;16.82;100.00;100595.02;1681572;84;20999;-91
2022/08/21 02:50:50;;;;;;;26.37;4.72;;;;;;;16.84;100.00;100597.02;1692314;84;21007;-92
2022/08/21 02:53:18;;;;;;;18.65;4.90;;;;;;;16.87;100.00;100601.94;1674861;84;21078;-92
2022/08/21 02:55:51;;;;;;;18.92;4.78;;;;;;;16.89;100.00;100602.61;1680687;84;21047;-93
2022/08/21 02:58:26;;;;;;;32.23;5.62;;;;;;;16.92;100.00;100598.36;1690737;84;21790;-91
2022/08/21 03:00:55;;;;;;;25.15;5.00;;;;;;;16.94;100.00;100595.59;1694993;84;21461;-91
2022/08/21 03:03:27;;;;;;;23.15;4.55;;;;;;;16.94;100.00;100602.17;1691137;84;21110;-91
2022/08/21 03:05:58;;;;;;;21.57;5.00;;;;;;;16.94;100.00;100601.70;1667172;85;21015;-92
2022/08/21 03:08:31;;;;;;;;;;;;;;;16.95;100.00;100599.37;1669504;86;21026;-91
2022/08/21 03:11:01;;;;;;;23.27;4.90;;;;;;;16.97;100.00;100606.63;1667043;86;21243;-91
2022/08/21 03:13:34;;;;;;;24.95;5.45;;;;;;;16.97;100.00;100613.20;1667012;86;21024;-91
2022/08/21 03:16:03;;;;;;;19.37;4.78;;;;;;;16.99;100.00;100619.61;1667170;86;21102;-91
2022/08/21 03:18:31;;;;;;;28.42;5.50;;;;;;;17.00;100.00;100622.58;1667032;85;21557;-93
2022/08/21 03:21:02;;;;;;;21.07;4.83;;;;;;;17.01;100.00;100625.55;1667050;86;21085;-92
2022/08/21 03:23:30;;;;;;;20.43;5.42;;;;;;;17.03;100.00;100632.80;1667142;85;21193;-91
2022/08/21 03:26:01;;;;;;;31.50;6.03;;;;;;;17.07;100.00;100636.75;1667084;86;21016;-91
2022/08/21 03:28:32;;;;;;;26.65;5.25;;;;;;;17.12;100.00;100643.70;1666992;86;21011;-91
2022/08/21 03:31:05;;;;;;;24.40;6.03;;;;;;;17.17;100.00;100647.98;1667225;85;21063;-91
2022/08/21 03:33:32;;;;;;;28.25;5.78;;;;;;;17.22;100.00;100644.07;1667162;85;21066;-92
2022/08/21 03:36:05;;;;;;;25.85;5.12;;;;;;;17.27;100.00;100643.09;1667226;85;21162;-93
2022/08/21 03:38:36;;;;;;;26.02;5.00;;;;;;;17.31;100.00;100647.88;1665085;86;21390;-90
2022/08/21 03:45:13;;;;;;;25.05;4.67;;;;;;;17.45;100.00;100649.56;1661859;85;21133;-93
2022/08/21 03:48:02;;;;;;;24.92;5.58;;;;;;;17.53;100.00;100642.20;1657269;85;21025;-94
2022/08/21 03:58:23;;;;;;;28.65;5.87;;;;;;;17.56;100.00;100641.38;1707047;84;21517;-94
2022/08/21 04:08:34;;;;;;;25.72;5.65;;;;;;;17.53;100.00;100642.20;1706924;84;21050;-94
2022/08/21 04:11:23;;;;;;;24.37;5.25;;;;;;;17.56;100.00;100645.80;1707072;84;21010;-93
2022/08/21 04:14:28;;;;;;;29.42;5.17;;;;;;;17.57;100.00;100645.67;1707243;83;21049;-93
2022/08/21 04:25:30;;;;;;;29.40;6.00;;;;;;;17.71;100.00;100644.70;1693976;83;21307;-92
2022/08/21 04:27:59;;;;;;;28.62;6.05;;;;;;;17.78;100.00;100644.37;1688675;83;21644;-91
2022/08/21 04:30:33;;;;;;;32.85;5.80;;;;;;;17.83;100.00;100648.66;1704190;82;21077;-92
2022/08/21 04:33:05;;;;;;;30.08;6.00;;;;;;;17.88;100.00;100642.91;1695055;83;21065;-91
2022/08/21 04:35:37;;;;;;;30.88;5.53;;;;;;;17.92;100.00;100641.61;1684159;83;21006;-91
2022/08/21 04:38:06;;;;;;;34.90;6.20;;;;;;;17.97;100.00;100644.13;1671624;85;21560;-91
2022/08/21 04:40:36;;;;;;;32.35;5.53;;;;;;;18.04;100.00;100639.52;1697107;83;21579;-91
2022/08/21 04:43:08;;;;;;;24.27;5.67;;;;;;;18.12;100.00;100642.16;1703417;83;21579;-93
2022/08/21 04:45:45;;;;;;;30.23;5.97;;;;;;;18.20;100.00;100647.90;1679782;83;21548;-90
2022/08/21 04:48:19;;;;;;;30.25;5.72;;;;;;;18.27;100.00;100639.19;1689783;83;21126;-91
2022/08/21 04:51:03;;;;;;;32.73;5.33;;;;;;;18.39;100.00;100629.60;1719509;82;21290;-86
2022/08/21 04:53:35;;;;;;;33.78;6.40;;;;;;;18.53;100.00;100624.99;1720403;82;21456;-87
2022/08/21 04:56:11;;;;;;;24.45;5.65;;;;;;;18.69;100.00;100627.27;1718104;83;21599;-86
2022/08/21 04:58:41;;;;;;;26.23;6.67;;;;;;;18.81;100.00;100621.95;1718744;83;21054;-85
2022/08/21 05:01:14;;;;;;;25.77;6.00;;;;;;;18.92;100.00;100616.83;1720255;82;21057;-87
2022/08/21 05:03:44;;;;;;;20.02;6.20;;;;;;;19.03;100.00;100612.99;1721197;82;21146;-91
2022/08/21 05:06:17;;;;;;;42.78;7.72;;;;;;;19.15;100.00;100612.15;1720398;83;21077;-87
2022/08/21 05:08:48;;;;;;;37.35;6.90;;;;;;;19.22;100.00;100615.23;1720384;83;21084;-91
2022/08/21 05:11:19;;;;;;;30.50;6.75;;;;;;;19.28;100.00;100615.05;1718290;83;21090;-90
2022/08/21 05:13:49;;;;;;;30.95;6.85;;;;;;;19.38;100.00;100627.55;1702140;82;21002;-89
2022/08/21 05:16:21;;;;;;;31.55;7.92;;;;;;;19.45;100.00;100626.84;1700486;83;21947;-92
2022/08/21 05:18:53;;;;;;;41.25;8.38;;;;;;;19.55;100.00;100627.42;1720589;82;20951;-90
2022/08/21 05:21:28;;;;;;;30.27;7.45;;;;;;;19.65;100.00;100617.97;1690140;84;21022;-91
2022/08/21 05:24:01;;;;;;;37.15;9.15;;;;;;;19.75;100.00;100615.09;1689987;84;21043;-87
2022/08/21 05:26:37;;;;;;;42.88;8.35;;;;;;;19.88;100.00;100613.22;1689671;84;21135;-87
2022/08/21 05:29:12;;;;;;;37.10;8.13;;;;;;;20.00;100.00;100619.72;1720335;82;21243;-88
2022/08/21 05:31:41;;;;;;;37.53;8.20;;;;;;;20.10;100.00;100616.34;1687572;84;20998;-87
2022/08/21 05:34:09;;;;;;;43.78;8.60;;;;;;;20.22;100.00;100617.25;1707069;82;21029;-88
2022/08/21 05:36:37;;;;;;;45.75;9.73;;;;;;;20.29;100.00;100608.92;1685196;84;21072;-88
2022/08/21 05:39:08;;;;;;;45.23;8.55;;;;;;;20.37;100.00;100610.16;1685683;83;21053;-87
2022/08/21 05:41:38;;;;;;;41.00;11.03;;;;;;;20.46;100.00;100601.16;1686496;84;21541;-88
2022/08/21 05:44:06;;;;;;;44.77;9.43;;;;;;;20.54;100.00;100604.71;1701768;82;21766;-90
2022/08/21 05:46:33;;;;;;;40.20;9.68;;;;;;;20.59;100.00;100599.69;1684615;83;21130;-89
2022/08/21 05:49:06;;;;;;;39.35;9.98;;;;;;;20.65;100.00;100595.83;1646707;86;21064;-88
2022/08/21 05:51:41;;;;;;;41.92;10.18;;;;;;;20.76;100.00;100594.57;1671099;84;20983;-87
2022/08/21 05:54:11;;;;;;;28.17;8.68;;;;;;;20.87;100.00;100588.51;1671314;85;21764;-87
2022/08/21 05:56:38;;;;;;;55.03;11.03;;;;;;;20.98;100.00;100582.73;1671368;84;21031;-88
2022/08/21 05:59:07;;;;;;;50.80;11.57;;;;;;;21.07;100.00;100585.59;1671346;85;21082;-87
2022/08/21 06:01:35;;;;;;;49.67;11.05;;;;;;;21.17;100.00;100588.45;1671447;85;21723;-87
2022/08/21 06:04:03;;;;;;;54.18;10.90;;;;;;;21.27;100.00;100588.98;1680436;83;21643;-89
2022/08/21 06:06:30;;;;;;;38.33;9.70;;;;;;;21.41;100.00;100600.52;1681722;84;21136;-88
2022/08/21 06:08:58;;;;;;;68.57;13.08;;;;;;;21.46;100.00;100606.58;1674511;84;21031;-90
2022/08/21 06:11:29;;;;;;;42.30;10.10;;;;;;;21.52;100.00;100611.96;1673376;85;21031;-88
2022/08/21 06:14:00;;;;;;;48.10;11.25;;;;;;;21.63;100.00;100610.67;1670301;85;21075;-87
2022/08/21 06:16:33;;;;;;;53.40;10.72;;;;;;;21.73;100.00;100612.52;1689378;84;21074;-89
2022/08/21 06:19:00;;;;;;;49.98;11.53;;;;;;;21.85;100.00;100618.12;1695503;84;21428;-88
2022/08/21 06:21:31;;;;;;;50.88;11.45;;;;;;;;;;1690512;84;21012;-87
2022/08/21 06:23:59;;;;;;;52.03;10.53;;;;;;;22.00;100.00;100603.45;1693034;84;21124;-88
2022/08/21 06:26:27;;;;;;;42.38;9.53;;;;;;;22.09;100.00;100605.48;1677661;84;21046;-88
2022/08/21 06:28:54;;;;;;;52.50;10.63;;;;;;;22.20;100.00;100610.77;1680358;84;21026;-89
2022/08/21 06:31:26;;;;;;;51.40;11.55;;;;;;;22.30;100.00;100607.27;1710399;83;21160;-88
2022/08/21 06:33:57;;;;;;;;;;;;;;;22.41;100.00;100611.25;1680337;84;20963;-89
2022/08/21 06:36:26;;;;;;;57.05;11.40;;;;;;;22.53;100.00;100604.38;1670196;84;20489;-89
2022/08/21 06:38:55;;;;;;;60.83;10.88;;;;;;;22.65;100.00;100606.50;1691039;84;21628;-89
2022/08/21 06:41:22;;;;;;;58.78;11.30;;;;;;;22.77;100.00;100602.79;1701359;84;21018;-89
2022/08/21 06:43:50;;;;;;;46.23;9.95;;;;;;;22.86;100.00;100602.94;1700982;84;21931;-89
2022/08/21 06:46:23;;;;;;;57.03;11.10;;;;;;;22.94;100.00;100595.30;1697139;84;21089;-87
2022/08/21 06:48:58;;;;;;;39.27;10.10;;;;;;;23.05;100.00;100599.22;1706861;82;21065;-89
2022/08/21 06:51:26;;;;;;;52.67;9.68;;;;;;;23.20;100.00;100593.28;1712446;83;21592;-91
2022/08/21 06:53:55;;;;;;;50.30;9.80;;;;;;;23.37;100.00;100590.26;1692983;84;21014;-90
2022/08/21 06:56:23;;;;;;;46.75;10.72;;;;;;;23.46;100.00;100582.42;1691914;84;21799;-90
2022/08/21 06:58:55;;;;;;;45.85;8.73;;;;;;;23.57;100.00;100578.34;1703615;83;21006;-88
2022/08/21 07:01:26;;;;;;;43.38;10.25;;;;;;;23.69;100.00;100576.73;1694200;84;21081;-90
2022/08/21 07:03:53;;;;;;;;;;;;;;;23.79;100.00;100577.66;1709981;84;21089;-90
2022/08/21 07:06:21;;;;;;;48.70;10.03;;;;;;;23.91;100.00;100573.38;1707642;83;20175;-92
2022/08/21 07:08:51;;;;;;;68.47;9.70;;;;;;;24.00;100.00;100577.16;1707723;84;21160;-94
2022/08/21 07:11:23;;;;;;;65.95;10.75;;;;;;;24.11;100.00;100577.88;1707627;84;21043;-89
2022/08/21 07:13:58;;;;;;;51.63;8.33;;;;;;;24.24;100.00;100577.05;1707142;84;21017;-92
2022/08/21 07:16:27;;;;;;;50.67;9.88;;;;;;;24.38;100.00;100577.33;1707833;84;20971;-92
2022/08/21 07:18:56;;;;;;;58.05;10.05;;;;;;;24.50;100.00;100574.84;1707753;84;21079;-96
2022/08/21 07:21:24;;;;;;;53.45;9.63;;;;;;;24.57;100.00;100571.65;1698090;84;21977;-93
2022/08/21 07:23:52;;;;;;;60.75;10.13;;;;;;;24.67;100.00;100577.08;1683320;84;21097;-91
2022/08/21 07:26:22;;;;;;;47.53;9.08;;;;;;;24.75;100.00;100574.71;1663623;85;21073;-94
2022/08/21 07:28:55;;;;;;;56.00;9.40;;;;;;;24.79;100.00;100572.75;1699873;84;21082;-90
2022/08/21 07:31:28;;;;;;;46.80;9.75;;;;;;;24.88;100.00;100572.80;1699570;84;21058;-84
2022/08/21 07:33:59;;;;;;;56.40;10.08;;;;;;;25.02;100.00;100575.41;1691632;84;21145;-94
2022/08/21 07:36:26;;;;;;;46.37;8.50;;;;;;;25.12;100.00;100567.77;1686066;84;22071;-90
2022/08/21 07:38:53;;;;;;;55.23;9.48;;;;;;;25.20;100.00;100569.37;1670349;84;21097;-87
2022/08/21 07:41:28;;;;;;;65.72;10.48;;;;;;;25.28;100.00;100566.98;1679869;84;21106;-92
2022/08/21 07:43:59;;;;;;;46.75;8.60;;;;;;;25.33;100.00;100565.81;1687194;84;21021;-91
2022/08/21 07:46:28;;;;;;;;;;;;;;;25.38;100.00;100569.98;1677489;85;21776;-94
2022/08/21 07:48:58;;;;;;;43.73;7.87;;;;;;;25.43;100.00;100575.53;1697063;83;20176;-92
2022/08/21 07:51:29;;;;;;;57.40;8.83;;;;;;;25.44;100.00;100574.47;1715189;83;21054;-92
2022/08/21 07:53:59;;;;;;;55.58;8.63;;;;;;;25.50;100.00;100573.63;1711155;82;21558;-91
2022/08/21 07:56:32;;;;;;;48.80;8.58;;;;;;;25.55;100.00;100570.32;1712349;82;21050;-91
2022/08/21 07:58:59;;;;;;;40.73;8.35;;;;;;;25.61;100.00;100565.95;1699511;83;22016;-90
2022/08/21 08:01:26;;;;;;;54.08;9.38;;;;;;;25.72;100.00;100565.27;1707034;83;21038;-91
2022/08/21 08:03:58;;;;;;;53.00;7.35;;;;;;;25.81;100.00;100572.46;1728874;82;21555;-94
2022/08/21 08:06:30;;;;;;;72.35;9.83;;;;;;;25.87;100.00;100568.11;1737524;82;21109;-90
2022/08/21 08:08:58;;;;;;;50.50;8.50;;;;;;;25.94;100.00;100561.70;1707093;82;21084;-91
2022/08/21 08:11:25;;;;;;;43.83;9.25;;;;;;;26.00;100.00;100565.31;1694945;83;21130;-90
2022/08/21 08:13:53;;;;;;;39.00;8.73;;;;;;;26.02;100.00;100561.92;1702374;83;21057;-90
2022/08/21 08:16:24;;;;;;;48.05;8.40;;;;;;;26.08;100.00;100555.73;1708981;82;21058;-91
2022/08/21 08:18:51;;;;;;;47.45;8.03;;;;;;;26.20;100.00;100556.35;1700790;82;21041;-93
2022/08/21 08:21:20;;;;;;;53.60;8.60;;;;;;;26.32;100.00;100550.56;1702628;83;21120;-90
2022/08/21 08:23:51;;;;;;;69.32;9.53;;;;;;;26.47;100.00;100548.07;1696028;83;21149;-91
2022/08/21 08:26:18;;;;;;;65.87;9.23;;;;;;;26.57;100.00;100547.84;1695514;83;20968;-91
2022/08/21 08:28:51;;;;;;;80.87;10.75;;;;;;;26.71;100.00;100551.17;1694418;83;21516;-92
2022/08/21 08:31:18;;;;;;;69.37;9.20;;;;;;;26.84;100.00;100544.86;1697442;83;21030;-89
2022/08/21 08:33:47;;;;;;;66.35;8.80;;;;;;;26.93;100.00;100541.37;1677156;83;21053;-92
2022/08/21 08:36:18;;;;;;;59.27;8.98;;;;;;;26.99;100.00;100553.02;1691794;83;21568;-89
2022/08/21 08:38:47;;;;;;;74.15;9.15;;;;;;;26.99;100.00;100560.49;1701123;82;21056;-89
2022/08/21 08:41:23;;;;;;;68.28;8.50;;;;;;;26.94;100.00;100556.36;1699486;83;21069;-89
2022/08/21 08:43:58;;;;;;;76.45;10.32;;;;;;;26.91;100.00;100553.62;1698784;83;21681;-90
2022/08/21 08:46:42;;;;;;;50.98;9.23;;;;;;;26.87;100.00;100547.08;1691263;83;21463;-88
2022/08/21 08:49:23;;;;;;;55.60;8.60;;;;;;;26.82;100.00;100554.97;1693077;82;21095;-89
2022/08/21 08:52:18;;;;;;;51.50;9.18;;;;;;;26.76;100.00;100552.67;1638586;87;21529;-88
2022/08/21 08:55:17;;;;;;;58.42;8.68;;;;;;;26.76;100.00;100547.86;1664771;85;21074;-89
2022/08/21 08:57:51;;;;;;;46.40;8.13;;;;;;;26.96;100.00;100548.11;1655483;85;21596;-89
2022/08/21 09:00:22;;;;;;;41.58;7.42;;;;;;;27.19;100.00;100550.86;1661293;85;21086;-89
2022/08/21 09:02:56;;;;;;;31.33;6.50;;;;;;;27.34;100.00;100553.13;1652001;85;21239;-90
2022/08/21 09:05:28;;;;;;;41.00;6.47;;;;;;;27.33;100.00;100564.86;1636469;87;22183;-90
2022/08/21 09:08:22;;;;;;;29.12;6.37;;;;;;;27.28;100.00;100572.72;1631852;87;21031;-89
2022/08/21 09:11:14;;;;;;;47.73;6.92;;;;;;;27.13;100.00;100573.66;1650191;86;21528;-90
2022/08/21 09:14:08;;;;;;;33.48;6.83;;;;;;;26.85;100.00;100569.73;1682344;84;21100;-87
2022/08/21 09:16:49;;;;;;;40.95;7.00;;;;;;;26.60;100.00;100574.08;1673072;84;21148;-90
2022/08/21 09:19:36;;;;;;;41.55;7.10;;;;;;;26.43;100.00;100583.20;1652648;86;21025;-89
2022/08/21 09:22:52;;;;;;;34.63;6.78;;;;;;;26.26;100.00;100586.98;1670028;84;21093;-90
2022/08/21 09:25:27;;;;;;;41.55;6.62;;;;;;;26.14;100.00;100596.23;1678104;84;21603;-93
2022/08/21 09:27:55;;;;;;;40.63;6.55;;;;;;;26.21;100.00;100586.81;1653740;86;21453;-90
2022/08/21 09:30:30;;;;;;;49.65;7.22;;;;;;;26.44;100.00;100582.17;1639349;85;21178;-92
2022/08/21 09:32:58;;;;;;;47.83;6.92;;;;;;;26.70;100.00;100582.92;1649297;86;21011;-90
2022/08/21 09:35:27;;;;;;;39.75;6.92;;;;;;;26.84;100.00;100581.45;1636963;87;21090;-88
2022/08/21 09:38:02;;;;;;;40.73;6.33;;;;;;;26.86;100.00;100584.72;1640990;85;21087;-92
2022/08/21 09:40:44;;;;;;;37.42;7.12;;;;;;;26.86;100.00;100584.72;1653661;85;21090;-88
2022/08/21 09:43:19;;;;;;;40.38;6.30;;;;;;;26.77;100.00;100573.50;1637229;85;21132;-90
2022/08/21 09:46:11;;;;;;;35.80;5.78;;;;;;;26.67;100.00;100577.21;1637149;87;21063;-90
2022/08/21 09:48:52;;;;;;;40.33;5.90;;;;;;;26.59;100.00;100568.47;1649424;84;21063;-90
2022/08/21 09:51:27;;;;;;;58.70;7.55;;;;;;;26.60;100.00;100562.06;1698939;84;21070;-89
2022/08/21 09:54:07;;;;;;;45.52;6.33;;;;;;;26.59;100.00;100564.97;1699280;84;21065;-89
2022/08/21 09:59:42;;;;;;;41.23;6.12;;;;;;;26.52;100.00;100556.22;1686254;84;20995;-89
2022/08/21 10:02:32;;;;;;;31.27;5.25;;;;;;;26.53;100.00;100551.18;1678062;84;21548;-89
2022/08/21 10:05:04;;;;;;;36.33;6.65;;;;;;;26.61;100.00;100546.34;1670085;84;21580;-91
2022/08/21 10:07:36;;;;;;;32.15;5.80;;;;;;;26.78;100.00;100548.97;1689111;84;21555;-89
2022/08/21 10:10:21;;;;;;;43.00;5.58;;;;;;;26.82;100.00;100542.95;1683062;84;21712;-89
2022/08/21 10:13:13;;;;;;;42.80;6.12;;;;;;;26.88;100.00;100532.69;1682653;84;21058;-89
2022/08/21 10:15:57;;;;;;;30.60;4.67;;;;;;;27.01;100.00;100529.53;1690311;84;21112;-90
2022/08/21 10:18:53;;;;;;;41.30;5.60;;;;;;;27.16;100.00;100527.26;1645888;86;21124;-90
2022/08/21 10:21:40;;;;;;;36.83;5.35;;;;;;;27.36;100.00;100513.59;1649849;86;21092;-90
2022/08/21 10:24:26;;;;;;;38.38;5.47;;;;;;;27.70;100.00;100505.08;1652044;86;21267;-93
2022/08/21 10:27:15;;;;;;;28.12;4.95;;;;;;;28.01;96.97;100510.57;1648429;86;21049;-92
2022/08/21 10:30:08;;;;;;;37.13;5.70;;;;;;;28.23;90.06;100517.21;1651671;86;21109;-92
2022/08/21 10:33:02;;;;;;;30.45;5.90;;;;;;;28.38;84.02;100504.67;1630318;87;21572;-90
2022/08/21 10:35:37;;;;;;;38.55;5.40;;;;;;;28.52;76.19;100496.66;1639875;87;21098;-91
2022/08/21 10:39:02;;;;;;;40.15;4.97;;;;;;;28.60;72.03;100496.28;1611123;87;22114;-90
2022/08/21 10:42:13;;;;;;;25.48;4.90;;;;;;;28.60;74.83;100494.94;1640738;87;21012;-91
2022/08/21 10:45:11;;;;;;;35.63;5.33;;;;;;;28.49;72.09;100493.94;1657724;85;21077;-95
2022/08/21 10:47:55;;;;;;;32.55;5.10;;;;;;;28.33;72.84;100490.66;1657514;85;21061;-91
2022/08/21 10:50:31;;;;;;;28.73;4.58;;;;;;;28.27;76.34;100493.75;1663148;84;21667;-90
2022/08/21 10:53:37;;;;;;;36.48;5.72;;;;;;;28.14;72.76;100497.50;1681289;83;22160;-90
2022/08/21 10:56:21;;;;;;;25.65;4.28;;;;;;;27.97;73.16;100497.39;1668230;85;21021;-91
2022/08/21 10:59:17;;;;;;;14.18;3.90;;;;;;;27.75;74.87;100504.38;1711625;82;21839;-90
2022/08/21 11:02:02;;;;;;;25.95;4.40;;;;;;;27.65;80.59;100509.78;1677668;85;21575;-91
2022/08/21 11:04:40;;;;;;;33.02;5.00;;;;;;;27.57;81.45;100517.31;1704235;83;21049;-91
2022/08/21 11:07:28;;;;;;;27.60;5.30;;;;;;;27.62;80.93;100518.25;1704320;84;21152;-91
2022/08/21 11:10:00;;;;;;;26.45;4.50;;;;;;;27.81;83.68;100520.30;1698604;84;21121;-91
2022/08/21 11:12:43;;;;;;;24.85;4.75;;;;;;;28.06;78.25;100522.45;1699701;83;21053;-91
2022/08/21 11:15:25;;;;;;;27.40;4.62;;;;;;;28.18;74.04;100525.94;1695973;84;22025;-90
2022/08/21 11:18:16;;;;;;;24.47;4.00;;;;;;;28.27;75.09;100523.20;1678242;84;21014;-90
2022/08/21 11:21:24;;;;;;;32.23;5.40;;;;;;;28.41;73.43;100524.27;1684654;84;21441;-91
2022/08/21 11:24:34;;;;;;;31.12;4.85;;;;;;;28.49;69.75;100523.39;1694688;83;21000;-91
2022/08/21 11:27:19;;;;;;;23.00;4.30;;;;;;;28.48;68.34;100518.28;1694650;84;21033;-91
2022/08/21 11:29:56;;;;;;;19.15;4.30;;;;;;;28.52;71.18;100510.58;1689844;84;21029;-91
2022/08/21 11:33:20;;;;;;;27.60;4.53;;;;;;;28.60;69.05;100510.20;1692568;84;21082;-91
2022/08/21 11:36:03;;;;;;;17.62;4.62;;;;;;;28.66;71.16;100498.53;1707064;84;21151;-91
2022/08/21 11:38:39;;;;;;;25.95;4.10;;;;;;;28.81;74.38;100500.70;1699196;84;21046;-91
2022/08/21 11:41:28;;;;;;;16.10;4.22;;;;;;;28.99;72.52;100498.87;1695915;83;21068;-91
2022/08/21 11:44:13;;;;;;;26.07;4.58;;;;;;;29.15;72.44;100495.40;1695702;84;21560;-91
2022/08/21 11:47:04;;;;;;;29.25;4.40;;;;;;;29.30;69.20;100495.36;1681860;85;21142;-91
2022/08/21 11:50:04;;;;;;;24.20;3.77;;;;;;;29.37;71.03;100494.70;1671962;84;21817;-91
2022/08/21 11:52:39;;;;;;;29.85;4.75;;;;;;;29.43;68.91;100491.06;1685967;84;21015;-90
2022/08/21 11:55:21;;;;;;;18.92;4.22;;;;;;;29.52;65.80;100494.97;1709912;83;21058;-91
2022/08/21 11:58:01;;;;;;;26.25;4.78;;;;;;;29.58;67.59;100501.19;1708555;83;21100;-92
2022/08/21 12:00:49;;;;;;;19.32;4.35;;;;;;;29.59;65.78;100492.92;1698038;83;21049;-95
2022/08/21 12:03:34;;;;;;;23.92;4.75;;;;;;;29.48;65.10;100497.84;1687191;83;21271;-91
2022/08/21 12:06:11;;;;;;;25.85;4.05;;;;;;;29.36;64.29;100496.58;1700934;83;20994;-90
2022/08/21 12:08:45;;;;;;;20.77;4.30;;;;;;;29.37;66.74;100487.99;1700079;83;21019;-91
2022/08/21 12:11:22;;;;;;;31.00;4.35;;;;;;;29.46;66.98;100489.22;1707939;83;21528;-90
2022/08/21 12:14:10;;;;;;;29.75;4.05;;;;;;;29.57;67.38;100492.34;1704284;83;21062;-95
2022/08/21 12:16:41;;;;;;;31.82;4.72;;;;;;;29.69;61.97;100483.38;1708059;83;21162;-92
2022/08/21 12:19:28;;;;;;;17.92;3.92;;;;;;;29.73;62.25;100487.20;1711534;83;21536;-91
2022/08/21 12:22:08;;;;;;;13.83;4.30;;;;;;;29.75;63.37;100485.89;1709930;83;21565;-91